Aérodrome :
LOGIN :

S'inscrire | Disclaimer

   EN    FR    IT 

 










Légende :    VFR   VFR Marginal   IFR   IFR Intensif   IFR Très Intensif
Visi : 
Plafond : 
>= 8 km
>= 3000ft
5 à 8 km
1000 à 3000 ft
1500m à 5 km
500 à 1000 ft
800 à 1500m
200 à 500 ft
< 800m
< 200 ft
Symboles :   Orages  Brouillard  Fortes neiges  Fortes précipitations  Vent > 20 kt
SIGMETs :   Divers  Orages  Givrage  Turbulence  Onde Orograph.  Cendres Volcan.






- Altitude de l'aérodrome : 125 ft
- Code IATA : MGL


EDLN - Mönchengladbach

DERNIER METAR :
  • 160850Z 19006KT 140V240 CAVOK 14/10 Q1010

METARs EXPIRÉS :
  • 160820Z 18005KT 120V240 CAVOK 14/10 Q1010
  • 160750Z 18005KT 150V230 CAVOK 13/10 Q1010
  • 160720Z 18005KT 130V230 CAVOK 12/10 Q1010
  • 160650Z 19005KT 140V250 CAVOK 11/10 Q1010
  • 160620Z 20004KT 160V230 9999 FEW040 11/10 Q1010

TAF TAF EDLN
Valide du 16 à 09h jusqu'au 16 à 18h UTC


160800Z 1609/1618 18007KT 9999 BKN035
PROB30
TEMPO 1611/1618 RA
TEMPO 1615/1618 BKN012



MET'MAP, la Météo Aéronautique d'un coup d'oeil ! - Copyright ORBIFLY Décembre 2007 - Disclaimer

ORBIFLY MET'MAP TEAM :

Programmation & Développement : Alexandra Zaïnal
Conception & Développement : Baudouin d'Aumeries
Co-Programmation & Développement : Marc-Olivier Méhu
Soutien technique & logistique : Manuel Goepfert

Contact : metmap@orbifly.com




SOURCES & CREDITS :

   NOAA